createdAt,value
2018-06-20T00:01:16.285Z,19.70
2018-06-20T00:03:44.208Z,18.13
2018-06-20T00:06:12.175Z,17.63
2018-06-20T00:08:50.823Z,20.75
2018-06-20T00:11:19.780Z,21.30
2018-06-20T00:13:47.759Z,19.00
2018-06-20T00:16:15.764Z,19.30
2018-06-20T00:18:43.924Z,18.43
2018-06-20T00:21:11.916Z,19.00
2018-06-20T00:23:40.618Z,21.65
2018-06-20T00:26:08.571Z,19.33
2018-06-20T00:28:36.529Z,19.30
2018-06-20T00:31:04.576Z,23.23
2018-06-20T00:33:32.512Z,18.53
2018-06-20T00:36:00.521Z,20.00
2018-06-20T00:38:28.468Z,20.20
2018-06-20T00:40:56.485Z,22.43
2018-06-20T00:43:24.453Z,21.47
2018-06-20T00:45:52.384Z,26.97
2018-06-20T00:48:20.428Z,18.27
2018-06-20T00:50:48.372Z,23.10
2018-06-20T00:53:16.501Z,21.00
2018-06-20T00:55:55.883Z,22.00
2018-06-20T00:58:24.036Z,24.63
2018-06-20T01:00:52.077Z,21.23
2018-06-20T01:03:20.093Z,20.00
2018-06-20T01:05:48.019Z,25.73
2018-06-20T01:08:15.995Z,22.63
2018-06-20T01:10:44.043Z,26.97
2018-06-20T01:13:12.005Z,22.20
2018-06-20T01:15:40.004Z,19.33
2018-06-20T01:18:07.981Z,22.03
2018-06-20T01:20:35.965Z,22.10
2018-06-20T01:23:03.835Z,21.23
2018-06-20T01:25:31.806Z,19.83
2018-06-20T01:27:59.809Z,22.40
2018-06-20T01:30:27.894Z,19.47
2018-06-20T01:32:56.233Z,25.07
2018-06-20T01:35:24.166Z,22.50
2018-06-20T01:37:52.146Z,18.73
2018-06-20T01:40:20.114Z,23.13
2018-06-20T01:42:48.067Z,22.83
2018-06-20T01:45:16.088Z,22.70
2018-06-20T01:47:44.022Z,30.60
2018-06-20T01:50:11.980Z,29.97
2018-06-20T01:52:39.927Z,22.10
2018-06-20T01:55:07.904Z,25.40
2018-06-20T01:57:36.418Z,27.00
2018-06-20T02:00:04.888Z,23.67
2018-06-20T02:02:32.847Z,24.40
2018-06-20T02:05:00.849Z,22.03
2018-06-20T02:07:28.788Z,26.63
2018-06-20T02:09:56.813Z,22.30
2018-06-20T02:12:24.747Z,24.57
2018-06-20T02:14:52.781Z,22.97
2018-06-20T02:17:20.752Z,24.93
2018-06-20T02:19:48.781Z,25.40
2018-06-20T02:22:16.848Z,24.70
2018-06-20T02:24:44.799Z,25.37
2018-06-20T02:27:12.734Z,27.20
2018-06-20T02:29:40.735Z,22.20
2018-06-20T02:32:08.760Z,24.33
2018-06-20T02:34:36.721Z,21.40
2018-06-20T02:37:04.704Z,23.27
2018-06-20T02:39:32.720Z,26.80
2018-06-20T02:42:00.696Z,20.73
2018-06-20T02:44:28.644Z,24.37
2018-06-20T02:46:56.646Z,26.70
2018-06-20T02:49:24.599Z,30.87
2018-06-20T02:51:52.559Z,32.93
2018-06-20T02:54:20.500Z,33.70
2018-06-20T02:56:48.448Z,31.13
2018-06-20T02:59:16.397Z,31.70
2018-06-20T03:01:44.341Z,32.73
2018-06-20T03:04:12.290Z,34.10
2018-06-20T03:06:40.233Z,36.80
2018-06-20T03:09:14.062Z,31.80
2018-06-20T03:11:43.016Z,37.60
2018-06-20T03:14:10.973Z,35.77
2018-06-20T03:16:39.057Z,41.80
2018-06-20T03:19:07.060Z,36.93
2018-06-20T03:21:35.000Z,33.20
2018-06-20T03:24:02.984Z,32.58
2018-06-20T03:26:30.911Z,40.60
2018-06-20T03:28:58.846Z,34.60
2018-06-20T03:31:26.960Z,35.73
2018-06-20T03:33:54.955Z,35.17
2018-06-20T03:36:22.911Z,32.80
2018-06-20T03:38:51.100Z,30.60
2018-06-20T03:41:19.101Z,29.83
2018-06-20T03:43:47.103Z,34.93
2018-06-20T03:46:15.159Z,34.70
2018-06-20T03:48:43.134Z,33.77
2018-06-20T03:51:11.117Z,37.23
2018-06-20T03:53:39.291Z,35.47
2018-06-20T03:56:07.282Z,34.90
2018-06-20T03:58:35.243Z,37.73
2018-06-20T04:01:03.228Z,37.97
2018-06-20T04:03:31.172Z,31.53
2018-06-20T04:05:59.314Z,36.20
2018-06-20T04:08:27.253Z,33.80
2018-06-20T04:10:55.276Z,39.50
2018-06-20T04:13:23.253Z,39.73
2018-06-20T04:15:51.330Z,39.60
2018-06-20T04:18:19.321Z,36.13
2018-06-20T04:20:47.196Z,40.60
2018-06-20T04:23:15.138Z,39.57
2018-06-20T04:25:43.262Z,40.33
2018-06-20T04:28:11.199Z,37.50
2018-06-20T04:30:39.184Z,43.40
2018-06-20T04:33:07.195Z,40.80
2018-06-20T04:35:35.163Z,40.50
2018-06-20T04:38:03.271Z,44.83
2018-06-20T04:40:31.178Z,46.30
2018-06-20T04:42:59.144Z,54.37
2018-06-20T04:45:27.111Z,45.53
2018-06-20T04:47:55.077Z,49.77
2018-06-20T04:50:22.955Z,49.77
2018-06-20T04:52:50.928Z,52.03
2018-06-20T04:55:18.888Z,51.60
2018-06-20T04:57:46.820Z,56.93
2018-06-20T05:00:15.620Z,57.98
2018-06-20T05:02:43.688Z,51.00
2018-06-20T05:05:11.683Z,52.00
2018-06-20T05:07:39.764Z,48.17
2018-06-20T05:10:07.840Z,52.47
2018-06-20T05:12:35.833Z,54.27
2018-06-20T05:15:03.825Z,52.93
2018-06-20T05:17:31.792Z,50.50
2018-06-20T05:19:59.780Z,54.00
2018-06-20T05:22:27.752Z,54.87
2018-06-20T05:24:55.702Z,58.53
2018-06-20T05:27:23.663Z,57.23
2018-06-20T05:29:51.629Z,55.83
2018-06-20T05:32:19.608Z,54.97
2018-06-20T05:34:48.536Z,52.23
2018-06-20T05:37:16.455Z,54.43
2018-06-20T05:39:44.420Z,48.73
2018-06-20T05:42:12.476Z,50.40
2018-06-20T05:44:40.457Z,45.87
2018-06-20T05:47:08.382Z,46.03
2018-06-20T05:49:36.362Z,44.87
2018-06-20T05:52:04.287Z,48.50
2018-06-20T05:54:32.209Z,46.87
2018-06-20T05:57:00.144Z,47.80
2018-06-20T05:59:28.292Z,43.57
2018-06-20T06:01:56.372Z,44.30
2018-06-20T06:04:24.380Z,51.10
2018-06-20T06:06:52.538Z,44.77
2018-06-20T06:09:20.512Z,46.03
2018-06-20T06:11:48.503Z,48.97
2018-06-20T06:14:16.932Z,47.88
2018-06-20T06:16:45.203Z,45.10
2018-06-20T06:19:13.112Z,44.77
2018-06-20T06:21:41.049Z,47.03
2018-06-20T06:24:08.992Z,44.13
2018-06-20T06:26:37.009Z,49.33
2018-06-20T06:29:04.973Z,47.10
2018-06-20T06:31:32.920Z,42.40
2018-06-20T06:34:00.888Z,37.67
2018-06-20T06:36:28.836Z,39.47
2018-06-20T06:38:56.829Z,42.53
2018-06-20T06:41:24.998Z,40.67
2018-06-20T06:43:52.989Z,40.40
2018-06-20T06:46:20.926Z,38.73
2018-06-20T06:48:48.888Z,35.43
2018-06-20T06:51:17.581Z,41.17
2018-06-20T06:53:45.533Z,38.00
2018-06-20T06:56:13.517Z,33.77
2018-06-20T06:58:41.487Z,39.93
2018-06-20T07:01:09.440Z,32.60
2018-06-20T07:03:37.417Z,41.03
2018-06-20T07:06:05.229Z,36.93
2018-06-20T07:08:33.268Z,32.60
2018-06-20T07:11:01.090Z,34.50
2018-06-20T07:13:29.112Z,39.80
2018-06-20T07:15:57.145Z,38.33
2018-06-20T07:18:25.144Z,45.40
2018-06-20T07:20:53.207Z,38.70
2018-06-20T07:23:21.145Z,36.30
2018-06-20T07:25:49.080Z,35.57
2018-06-20T07:28:17.151Z,40.47
2018-06-20T07:30:45.109Z,39.37
2018-06-20T07:33:13.065Z,38.60
2018-06-20T07:35:41.266Z,46.90
2018-06-20T07:38:09.002Z,46.80
2018-06-20T07:40:36.959Z,56.70
2018-06-20T07:43:04.956Z,45.70
2018-06-20T07:45:32.895Z,44.27
2018-06-20T07:48:00.901Z,51.17
2018-06-20T07:50:28.846Z,45.63
2018-06-20T07:52:56.869Z,41.97
2018-06-20T07:55:25.093Z,53.30
2018-06-20T07:57:53.013Z,41.30
2018-06-20T08:00:26.468Z,41.40
2018-06-20T08:03:14.485Z,45.37
2018-06-20T08:05:48.106Z,47.37
2018-06-20T08:08:21.571Z,43.80
2018-06-20T08:10:55.094Z,43.13
2018-06-20T08:13:28.722Z,45.70
2018-06-20T08:16:02.310Z,46.93
2018-06-20T08:18:35.976Z,44.15
2018-06-20T08:21:04.373Z,45.33
2018-06-20T08:23:32.466Z,59.57
2018-06-20T08:26:00.737Z,47.40
2018-06-20T08:28:28.934Z,53.10
2018-06-20T08:30:56.886Z,47.70
2018-06-20T08:33:24.988Z,43.92
2018-06-20T08:35:52.928Z,43.50
2018-06-20T08:38:20.880Z,48.63
2018-06-20T08:40:49.542Z,50.03
2018-06-20T08:43:17.521Z,48.47
2018-06-20T08:45:45.484Z,48.67
2018-06-20T08:48:13.458Z,51.13
2018-06-20T08:50:41.428Z,46.47
2018-06-20T08:53:09.411Z,50.40
2018-06-20T08:55:37.432Z,45.70
2018-06-20T08:58:05.400Z,48.77
2018-06-20T09:00:38.788Z,45.67
2018-06-20T09:03:06.739Z,51.97
2018-06-20T09:05:40.136Z,44.97
2018-06-20T09:08:13.572Z,43.40
2018-06-20T09:10:47.112Z,47.43
2018-06-20T09:13:20.672Z,48.97
2018-06-20T09:15:54.132Z,47.40
2018-06-20T09:18:27.616Z,48.20
2018-06-20T09:20:55.613Z,53.53
2018-06-20T09:23:23.633Z,40.80
2018-06-20T09:25:51.576Z,46.60
2018-06-20T09:28:20.472Z,43.33
2018-06-20T09:30:48.495Z,42.60
2018-06-20T09:33:16.452Z,42.17
2018-06-20T09:35:44.414Z,30.97
2018-06-20T09:38:12.556Z,42.80
2018-06-20T09:40:42.076Z,50.47
2018-06-20T09:43:10.024Z,65.93
2018-06-20T09:45:37.989Z,47.43
2018-06-20T09:48:05.924Z,41.70
2018-06-20T09:50:39.448Z,41.83
2018-06-20T09:53:07.409Z,37.43
2018-06-20T09:55:35.378Z,42.50
2018-06-20T09:58:03.342Z,36.80
2018-06-20T10:00:36.874Z,49.43
2018-06-20T10:03:10.424Z,36.80
2018-06-20T10:05:43.996Z,36.20
2018-06-20T10:08:17.364Z,35.70
2018-06-20T10:11:49.636Z,38.30
2018-06-20T10:14:17.691Z,33.60
2018-06-20T10:16:45.636Z,29.23
2018-06-20T10:19:13.600Z,28.37
2018-06-20T10:21:41.544Z,28.40
2018-06-20T10:24:09.617Z,28.70
2018-06-20T10:26:37.608Z,24.30
2018-06-20T10:29:05.612Z,23.33
2018-06-20T10:31:33.577Z,26.40
2018-06-20T10:34:01.584Z,21.63
2018-06-20T10:36:29.569Z,22.40
2018-06-20T10:38:57.350Z,23.00
2018-06-20T10:41:25.332Z,25.23
2018-06-20T10:43:53.337Z,20.60
2018-06-20T10:46:27.225Z,26.77
2018-06-20T10:48:55.183Z,19.37
2018-06-20T10:51:23.151Z,21.30
2018-06-20T10:53:52.029Z,23.73
2018-06-20T10:56:25.454Z,19.30
2018-06-20T10:58:59.013Z,18.30
2018-06-20T11:01:32.532Z,25.57
2018-06-20T11:04:05.859Z,21.00
2018-06-20T11:06:39.233Z,22.70
2018-06-20T11:09:13.247Z,31.17
2018-06-20T11:11:46.624Z,22.77
2018-06-20T11:14:14.565Z,22.57
2018-06-20T11:16:42.564Z,22.53
2018-06-20T11:19:10.517Z,20.20
2018-06-20T11:21:38.451Z,17.70
2018-06-20T11:24:06.522Z,18.77
2018-06-20T11:26:34.595Z,14.77
2018-06-20T11:29:02.535Z,14.00
2018-06-20T11:31:30.493Z,17.57
2018-06-20T11:33:58.540Z,23.80
2018-06-20T11:36:26.634Z,15.50
2018-06-20T11:38:54.567Z,20.03
2018-06-20T11:41:22.742Z,16.23
2018-06-20T11:43:50.773Z,16.00
2018-06-20T11:46:24.283Z,13.87
2018-06-20T11:48:52.722Z,13.33
2018-06-20T11:51:20.728Z,15.57
2018-06-20T11:53:48.826Z,13.77
2018-06-20T11:56:16.871Z,14.50
2018-06-20T11:58:50.253Z,15.63
2018-06-20T12:01:23.685Z,9.17
2018-06-20T12:04:55.966Z,14.33
2018-06-20T12:07:29.379Z,14.50
2018-06-20T12:10:02.747Z,15.97
2018-06-20T12:12:36.257Z,13.27
2018-06-20T12:15:09.816Z,11.83
2018-06-20T12:17:43.183Z,14.97
2018-06-20T12:20:16.627Z,14.97
2018-06-20T12:22:49.999Z,14.43
2018-06-20T12:25:23.423Z,16.00
2018-06-20T12:27:56.796Z,12.50
2018-06-20T12:30:30.175Z,14.17
2018-06-20T12:33:03.576Z,16.90
2018-06-20T12:35:37.089Z,18.77
2018-06-20T12:38:10.713Z,19.80
2018-06-20T12:40:44.025Z,15.60
2018-06-20T12:43:17.616Z,16.77
2018-06-20T12:45:45.758Z,14.20
2018-06-20T12:48:13.733Z,13.53
2018-06-20T12:50:41.660Z,19.53
2018-06-20T12:53:09.624Z,11.80
2018-06-20T12:55:37.553Z,18.80
2018-06-20T12:58:05.486Z,16.13
2018-06-20T13:00:33.414Z,14.90
2018-06-20T13:03:01.393Z,16.00
2018-06-20T13:05:29.364Z,15.10
2018-06-20T13:07:57.326Z,15.97
2018-06-20T13:10:25.269Z,13.40
2018-06-20T13:12:53.196Z,15.37
2018-06-20T13:15:21.240Z,12.30
2018-06-20T13:17:49.275Z,13.60
2018-06-20T13:20:17.271Z,17.33
2018-06-20T13:22:45.284Z,15.27
2018-06-20T13:25:13.238Z,23.17
2018-06-20T13:27:46.080Z,15.00
2018-06-20T13:30:14.363Z,14.70
2018-06-20T13:32:47.919Z,13.20
2018-06-20T13:35:21.273Z,14.33
2018-06-20T13:37:54.782Z,15.90
2018-06-20T13:40:28.074Z,17.00
2018-06-20T13:43:01.305Z,22.30
2018-06-20T13:45:34.666Z,14.57
2018-06-20T13:48:08.029Z,14.77
2018-06-20T13:50:36.174Z,13.87
2018-06-20T13:53:04.131Z,13.63
2018-06-20T13:55:32.153Z,14.60
2018-06-20T13:58:00.107Z,14.20
2018-06-20T14:00:28.534Z,16.10
2018-06-20T14:02:56.812Z,12.47
2018-06-20T14:05:25.516Z,16.00
2018-06-20T14:07:53.429Z,13.77
2018-06-20T14:10:21.383Z,18.00
2018-06-20T14:12:49.327Z,14.77
2018-06-20T14:15:17.272Z,15.10
2018-06-20T14:17:45.291Z,14.90
2018-06-20T14:20:18.736Z,16.93
2018-06-20T14:22:46.678Z,12.73
2018-06-20T14:25:14.636Z,14.73
2018-06-20T14:27:42.564Z,16.83
2018-06-20T14:30:10.552Z,13.63
2018-06-20T14:32:44.174Z,12.93
2018-06-20T14:35:17.559Z,14.30
2018-06-20T14:37:51.144Z,15.97
2018-06-20T14:40:24.460Z,13.67
2018-06-20T14:42:57.832Z,13.10
2018-06-20T14:45:31.889Z,14.40
2018-06-20T14:47:59.804Z,17.30
2018-06-20T14:50:27.757Z,15.03
2018-06-20T14:52:56.343Z,17.63
2018-06-20T14:55:24.418Z,14.03
2018-06-20T14:57:52.312Z,14.37
2018-06-20T15:00:20.323Z,14.70
2018-06-20T15:02:48.232Z,15.53
2018-06-20T15:05:16.152Z,16.07
2018-06-20T15:07:44.145Z,21.50
2018-06-20T15:10:12.087Z,12.00
2018-06-20T15:12:40.127Z,16.33
2018-06-20T15:15:08.095Z,11.63
2018-06-20T15:17:36.068Z,15.20
2018-06-20T15:20:04.024Z,16.73
2018-06-20T15:22:37.373Z,11.60
2018-06-20T15:25:05.355Z,14.47
2018-06-20T15:27:38.940Z,16.27
2018-06-20T15:30:12.532Z,12.87
2018-06-20T15:32:46.030Z,14.57
2018-06-20T15:35:19.581Z,16.67
2018-06-20T15:37:52.808Z,13.90
2018-06-20T15:40:20.796Z,15.63
2018-06-20T15:42:48.772Z,10.43
2018-06-20T15:45:16.745Z,13.57
2018-06-20T15:47:44.732Z,12.90
2018-06-20T15:50:12.718Z,11.10
2018-06-20T15:52:40.681Z,18.40
2018-06-20T15:55:08.654Z,12.93
2018-06-20T15:57:36.668Z,12.20
2018-06-20T16:00:04.957Z,10.33
2018-06-20T16:02:32.916Z,9.30
2018-06-20T16:05:01.109Z,11.17
2018-06-20T16:07:29.107Z,12.43
2018-06-20T16:09:59.166Z,11.60
2018-06-20T16:12:28.235Z,9.87
2018-06-20T16:14:57.234Z,11.67
2018-06-20T16:17:25.424Z,10.57
2018-06-20T16:19:58.991Z,15.40
2018-06-20T16:22:32.472Z,15.00
2018-06-20T16:25:05.816Z,10.07
2018-06-20T16:27:39.154Z,12.33
2018-06-20T16:30:12.566Z,9.20
2018-06-20T16:32:40.486Z,12.40
2018-06-20T16:35:08.408Z,12.30
2018-06-20T16:37:36.393Z,10.00
2018-06-20T16:40:04.324Z,9.83
2018-06-20T16:42:32.320Z,11.80
2018-06-20T16:45:00.274Z,14.23
2018-06-20T16:47:28.606Z,8.77
2018-06-20T16:49:56.523Z,10.83
2018-06-20T16:52:24.504Z,9.53
2018-06-20T16:54:52.476Z,8.67
2018-06-20T16:57:20.457Z,16.17
2018-06-20T16:59:48.452Z,40.13
2018-06-20T17:02:21.901Z,17.90
2018-06-20T17:04:49.965Z,14.00
2018-06-20T17:07:18.646Z,8.43
2018-06-20T17:09:47.446Z,15.30
2018-06-20T17:12:21.069Z,12.77
2018-06-20T17:14:54.447Z,11.50
2018-06-20T17:17:28.041Z,11.80
2018-06-20T17:20:01.472Z,9.10
2018-06-20T17:22:34.991Z,9.40
2018-06-20T17:25:08.567Z,7.90
2018-06-20T17:27:36.689Z,9.23
2018-06-20T17:30:05.626Z,8.10
2018-06-20T17:32:33.577Z,12.53
2018-06-20T17:35:01.559Z,8.00
2018-06-20T17:37:29.854Z,7.03
2018-06-20T17:39:57.826Z,9.87
2018-06-20T17:42:25.928Z,10.63
2018-06-20T17:44:53.911Z,10.90
2018-06-20T17:47:21.872Z,10.47
2018-06-20T17:49:49.820Z,7.50
2018-06-20T17:52:17.779Z,6.73
2018-06-20T17:54:45.796Z,8.83
2018-06-20T17:57:13.737Z,9.80
2018-06-20T17:59:41.874Z,6.50
2018-06-20T18:02:10.178Z,7.80
2018-06-20T18:04:43.884Z,10.97
2018-06-20T18:07:17.463Z,9.10
2018-06-20T18:09:51.074Z,6.00
2018-06-20T18:12:24.508Z,7.77
2018-06-20T18:14:58.009Z,7.93
2018-06-20T18:17:26.052Z,10.00
2018-06-20T18:19:54.049Z,9.80
2018-06-20T18:22:21.988Z,7.43
2018-06-20T18:24:49.960Z,10.73
2018-06-20T18:27:17.943Z,11.73
2018-06-20T18:29:45.879Z,9.57
2018-06-20T18:32:13.822Z,8.17
2018-06-20T18:34:41.783Z,8.70
2018-06-20T18:37:09.696Z,6.23
2018-06-20T18:39:43.259Z,13.13
2018-06-20T18:42:11.177Z,9.50
2018-06-20T18:44:39.110Z,12.93
2018-06-20T18:47:07.112Z,12.30
2018-06-20T18:49:35.216Z,8.27
2018-06-20T18:52:03.136Z,10.90
2018-06-20T18:54:31.160Z,9.80
2018-06-20T18:56:59.649Z,8.37
2018-06-20T18:59:33.189Z,7.33
2018-06-20T19:02:06.732Z,8.17
2018-06-20T19:04:40.218Z,8.43
2018-06-20T19:07:13.578Z,8.60
2018-06-20T19:09:41.551Z,7.30
2018-06-20T19:12:09.344Z,8.70
2018-06-20T19:14:37.292Z,7.37
2018-06-20T19:17:05.286Z,8.93
2018-06-20T19:19:33.297Z,8.70
2018-06-20T19:22:01.494Z,9.30
2018-06-20T19:24:29.471Z,11.20
2018-06-20T19:26:57.449Z,7.17
2018-06-20T19:29:25.409Z,7.30
2018-06-20T19:31:53.691Z,6.97
2018-06-20T19:34:21.696Z,9.17
2018-06-20T19:36:49.731Z,6.57
2018-06-20T19:39:23.167Z,8.77
2018-06-20T19:41:51.116Z,9.83
2018-06-20T19:44:24.713Z,8.10
2018-06-20T19:46:52.723Z,11.17
2018-06-20T19:49:20.739Z,8.30
2018-06-20T19:51:48.750Z,16.73
2018-06-20T19:54:16.696Z,7.40
2018-06-20T19:56:44.672Z,14.60
2018-06-20T19:59:12.632Z,8.67
2018-06-20T20:01:40.627Z,7.30
2018-06-20T20:04:08.583Z,10.60
2018-06-20T20:06:36.530Z,8.97
2018-06-20T20:09:06.751Z,8.70
2018-06-20T20:11:34.733Z,11.43
2018-06-20T20:14:02.722Z,8.50
2018-06-20T20:16:30.668Z,7.13
2018-06-20T20:18:58.636Z,15.03
2018-06-20T20:21:26.632Z,6.33
2018-06-20T20:23:54.601Z,8.33
2018-06-20T20:26:22.720Z,8.50
2018-06-20T20:28:50.677Z,12.53
2018-06-20T20:31:18.673Z,5.97
2018-06-20T20:33:46.770Z,8.93
2018-06-20T20:36:14.660Z,8.93
2018-06-20T20:38:42.632Z,10.97
2018-06-20T20:41:10.574Z,6.30
2018-06-20T20:43:38.516Z,6.83
2018-06-20T20:46:06.971Z,7.13
2018-06-20T20:48:34.963Z,13.07
2018-06-20T20:51:03.139Z,7.27
2018-06-20T20:53:31.132Z,5.83
2018-06-20T20:55:59.088Z,8.73
2018-06-20T20:58:27.056Z,9.70
2018-06-20T21:00:55.098Z,10.30
2018-06-20T21:03:23.055Z,6.70
2018-06-20T21:05:51.238Z,9.10
2018-06-20T21:08:19.260Z,12.13
2018-06-20T21:10:47.418Z,8.17
2018-06-20T21:13:15.385Z,5.93
2018-06-20T21:15:43.355Z,6.80
2018-06-20T21:18:11.295Z,8.73
2018-06-20T21:20:39.243Z,6.53
2018-06-20T21:23:07.967Z,6.50
2018-06-20T21:25:36.000Z,7.30
2018-06-20T21:28:04.104Z,7.17
2018-06-20T21:30:32.011Z,9.60
2018-06-20T21:32:59.986Z,11.10
2018-06-20T21:35:27.939Z,9.10
2018-06-20T21:37:55.893Z,6.50
2018-06-20T21:40:23.832Z,8.33
2018-06-20T21:42:51.838Z,11.90
2018-06-20T21:45:19.960Z,10.20
2018-06-20T21:47:47.911Z,7.63
2018-06-20T21:50:15.885Z,6.17
2018-06-20T21:52:43.821Z,8.83
2018-06-20T21:55:11.753Z,6.20
2018-06-20T21:57:39.766Z,6.40
2018-06-20T22:00:09.137Z,7.53
2018-06-20T22:02:37.251Z,7.70
2018-06-20T22:05:05.380Z,8.13
2018-06-20T22:07:34.128Z,13.43
2018-06-20T22:10:02.063Z,10.40
2018-06-20T22:12:30.019Z,7.07
2018-06-20T22:14:58.038Z,7.97
2018-06-20T22:17:25.983Z,5.90
2018-06-20T22:19:54.011Z,7.60
2018-06-20T22:22:22.020Z,14.83
2018-06-20T22:24:49.970Z,7.77
2018-06-20T22:27:17.912Z,8.60
2018-06-20T22:29:45.905Z,11.90
2018-06-20T22:32:13.854Z,6.10
2018-06-20T22:34:41.835Z,8.03
2018-06-20T22:37:09.746Z,6.10
2018-06-20T22:39:37.697Z,11.70
2018-06-20T22:42:05.749Z,8.10
2018-06-20T22:44:34.420Z,6.17
2018-06-20T22:47:02.387Z,8.00
2018-06-20T22:49:30.344Z,6.77
2018-06-20T22:51:58.291Z,8.30
2018-06-20T22:54:26.268Z,8.67
2018-06-20T22:56:54.034Z,7.10
2018-06-20T22:59:21.994Z,18.70
2018-06-20T23:01:49.937Z,7.40
2018-06-20T23:04:17.924Z,6.90
2018-06-20T23:06:45.848Z,7.27
2018-06-20T23:09:13.897Z,10.50
2018-06-20T23:11:49.156Z,6.50
2018-06-20T23:14:17.168Z,11.10
2018-06-20T23:16:45.206Z,8.07
2018-06-20T23:19:13.156Z,8.60
2018-06-20T23:21:41.972Z,9.53
2018-06-20T23:24:09.904Z,8.27
2018-06-20T23:26:37.932Z,7.73
2018-06-20T23:29:05.852Z,8.10
2018-06-20T23:31:33.824Z,7.90
2018-06-20T23:34:01.755Z,7.40
2018-06-20T23:36:29.761Z,6.37
2018-06-20T23:38:57.773Z,12.10
2018-06-20T23:41:25.700Z,7.13
2018-06-20T23:43:53.655Z,7.67
2018-06-20T23:46:21.675Z,6.87
2018-06-20T23:48:49.606Z,7.40
2018-06-20T23:51:17.570Z,7.27
2018-06-20T23:53:45.525Z,6.90
2018-06-20T23:56:13.451Z,8.57
2018-06-20T23:58:41.440Z,11.10
